DYE570 LIRN-LIMJ
Flight info
| Callsign | DYE570 |
|---|---|
| Flight time | 1h 22m |
| Altitude | 30000 |
| Route | VEXUV DCT PNZ DCT LUNAK DCT RAVAL DCT ELB DCT NORNI DCT BETEN/N0377F180 M729 IDONA |
| Aircraft | A320/M-SDE3FGHIRWY/LB1 |
Departure
| Time | 2026-04-21 20:11 |
|---|---|
| Airport | Naples International Airport (LIRN) |
Arrival
| Time | 2026-04-21 21:34 |
|---|---|
| Airport | Genoa Cristoforo Colombo Airport (LIMJ) |
| Time | Latitude | Longitude | Altitude | Speed | Heading |
|---|---|---|---|---|---|
| 2026-04-21 19:01 | 40.88173 | 14.28666 | 282 ft | 0 kts | 329° |
| 2026-04-21 19:45 | 40.88158 | 14.28679 | 282 ft | 4 kts | 328° |
| 2026-04-21 19:45 | 40.88135 | 14.28697 | 282 ft | 4 kts | 339° |
| 2026-04-21 19:45 | 40.88109 | 14.28702 | 282 ft | 4 kts | 19° |
| 2026-04-21 19:45 | 40.88094 | 14.28689 | 288 ft | 1 kts | 52° |
| 2026-04-21 19:46 | 40.88092 | 14.28686 | 288 ft | 0 kts | 52° |
| 2026-04-21 19:55 | 40.88101 | 14.28701 | 284 ft | 8 kts | 52° |
| 2026-04-21 19:55 | 40.88152 | 14.28788 | 280 ft | 13 kts | 52° |
| 2026-04-21 19:56 | 40.88212 | 14.28891 | 276 ft | 15 kts | 52° |
| 2026-04-21 19:56 | 40.88285 | 14.29016 | 272 ft | 19 kts | 53° |
| 2026-04-21 19:56 | 40.88373 | 14.29170 | 268 ft | 23 kts | 53° |
| 2026-04-21 19:56 | 40.88478 | 14.29353 | 262 ft | 27 kts | 52° |
| 2026-04-21 19:57 | 40.88597 | 14.29556 | 255 ft | 30 kts | 52° |
| 2026-04-21 19:57 | 40.88721 | 14.29775 | 248 ft | 31 kts | 53° |
| 2026-04-21 19:57 | 40.88843 | 14.29991 | 242 ft | 30 kts | 53° |
| 2026-04-21 19:57 | 40.88965 | 14.30199 | 239 ft | 23 kts | 52° |
| 2026-04-21 19:58 | 40.89039 | 14.30327 | 231 ft | 5 kts | 53° |
| 2026-04-21 19:58 | 40.89041 | 14.30332 | 231 ft | 1 kts | 53° |
| 2026-04-21 19:58 | 40.89051 | 14.30348 | 230 ft | 1 kts | 53° |
| 2026-04-21 20:07 | 40.89070 | 14.30381 | 229 ft | 11 kts | 53° |
| 2026-04-21 20:08 | 40.89130 | 14.30450 | 228 ft | 12 kts | 18° |
| 2026-04-21 20:08 | 40.89207 | 14.30409 | 225 ft | 13 kts | 309° |
| 2026-04-21 20:08 | 40.89201 | 14.30340 | 228 ft | 1 kts | 240° |
| 2026-04-21 20:10 | 40.89175 | 14.30285 | 228 ft | 35 kts | 238° |
| 2026-04-21 20:11 | 40.88911 | 14.29725 | 248 ft | 106 kts | 238° |
| 2026-04-21 20:11 | 40.88414 | 14.28682 | 301 ft | 157 kts | 238° |
| 2026-04-21 20:11 | 40.87820 | 14.27461 | 913 ft | 158 kts | 231° |
| 2026-04-21 20:11 | 40.86940 | 14.26620 | 1612 ft | 160 kts | 194° |
| 2026-04-21 20:12 | 40.85834 | 14.26680 | 2282 ft | 160 kts | 165° |
| 2026-04-21 20:12 | 40.84744 | 14.26971 | 2862 ft | 160 kts | 174° |
| 2026-04-21 20:12 | 40.83634 | 14.27106 | 3419 ft | 160 kts | 177° |
| 2026-04-21 20:12 | 40.82492 | 14.27222 | 3789 ft | 174 kts | 178° |
| 2026-04-21 20:13 | 40.81209 | 14.27357 | 4031 ft | 195 kts | 177° |
| 2026-04-21 20:13 | 40.79820 | 14.27514 | 4523 ft | 204 kts | 177° |
| 2026-04-21 20:13 | 40.78402 | 14.27681 | 5150 ft | 206 kts | 178° |
| 2026-04-21 20:13 | 40.76964 | 14.27857 | 5762 ft | 209 kts | 178° |
| 2026-04-21 20:14 | 40.75507 | 14.28040 | 6369 ft | 212 kts | 178° |
| 2026-04-21 20:14 | 40.74027 | 14.28227 | 6939 ft | 215 kts | 179° |
| 2026-04-21 20:14 | 40.72529 | 14.28409 | 7509 ft | 217 kts | 183° |
| 2026-04-21 20:14 | 40.71059 | 14.28136 | 8087 ft | 212 kts | 206° |
| 2026-04-21 20:15 | 40.69811 | 14.27167 | 8672 ft | 206 kts | 229° |
| 2026-04-21 20:15 | 40.68899 | 14.25712 | 9129 ft | 214 kts | 237° |
| 2026-04-21 20:15 | 40.67846 | 14.24161 | 9366 ft | 241 kts | 226° |
| 2026-04-21 20:15 | 40.66481 | 14.22680 | 9647 ft | 267 kts | 222° |
| 2026-04-21 20:16 | 40.64950 | 14.21146 | 10100 ft | 283 kts | 221° |
| 2026-04-21 20:16 | 40.63374 | 14.19560 | 10784 ft | 288 kts | 222° |
| 2026-04-21 20:16 | 40.61796 | 14.17917 | 11527 ft | 290 kts | 224° |
| 2026-04-21 20:16 | 40.60227 | 14.16224 | 12281 ft | 293 kts | 225° |
| 2026-04-21 20:17 | 40.58681 | 14.14512 | 13010 ft | 296 kts | 225° |
| 2026-04-21 20:17 | 40.57110 | 14.12745 | 13764 ft | 299 kts | 226° |
| 2026-04-21 20:17 | 40.55531 | 14.10953 | 14407 ft | 302 kts | 226° |
| 2026-04-21 20:17 | 40.53938 | 14.09139 | 15062 ft | 304 kts | 226° |
| 2026-04-21 20:18 | 40.52853 | 14.07903 | 15501 ft | 306 kts | 226° |
| 2026-04-21 20:18 | 40.50827 | 14.05326 | 16356 ft | 304 kts | 237° |
| 2026-04-21 20:18 | 40.49735 | 14.02977 | 17008 ft | 301 kts | 250° |
| 2026-04-21 20:18 | 40.48991 | 14.00416 | 17661 ft | 301 kts | 254° |
| 2026-04-21 20:19 | 40.48267 | 13.97822 | 18297 ft | 304 kts | 254° |
| 2026-04-21 20:19 | 40.47535 | 13.95208 | 18863 ft | 306 kts | 254° |
| 2026-04-21 20:19 | 40.46794 | 13.92574 | 19421 ft | 309 kts | 253° |
| 2026-04-21 20:19 | 40.46045 | 13.89922 | 19978 ft | 311 kts | 253° |
| 2026-04-21 20:20 | 40.45288 | 13.87245 | 20528 ft | 314 kts | 253° |
| 2026-04-21 20:20 | 40.44525 | 13.84545 | 21077 ft | 316 kts | 253° |
| 2026-04-21 20:20 | 40.43759 | 13.81830 | 21623 ft | 319 kts | 255° |
| 2026-04-21 20:20 | 40.43289 | 13.79005 | 22147 ft | 316 kts | 269° |
| 2026-04-21 20:21 | 40.43453 | 13.76138 | 22663 ft | 317 kts | 284° |
| 2026-04-21 20:21 | 40.44247 | 13.73393 | 22799 ft | 330 kts | 300° |
| 2026-04-21 20:21 | 40.45650 | 13.70922 | 22949 ft | 345 kts | 308° |
| 2026-04-21 20:21 | 40.47192 | 13.68438 | 23088 ft | 358 kts | 307° |
| 2026-04-21 20:22 | 40.48786 | 13.65851 | 23230 ft | 370 kts | 307° |
| 2026-04-21 20:22 | 40.52080 | 13.60477 | 23863 ft | 382 kts | 307° |
| 2026-04-21 20:22 | 40.53744 | 13.57751 | 24256 ft | 384 kts | 307° |
| 2026-04-21 20:23 | 40.55419 | 13.55006 | 24652 ft | 385 kts | 307° |
| 2026-04-21 20:23 | 40.57097 | 13.52253 | 25045 ft | 387 kts | 307° |
| 2026-04-21 20:23 | 40.58780 | 13.49486 | 25433 ft | 388 kts | 307° |
| 2026-04-21 20:23 | 40.60470 | 13.46708 | 25818 ft | 389 kts | 307° |
| 2026-04-21 20:24 | 40.62165 | 13.43926 | 26194 ft | 391 kts | 307° |
| 2026-04-21 20:24 | 40.63870 | 13.41127 | 26567 ft | 392 kts | 307° |
| 2026-04-21 20:24 | 40.65578 | 13.38317 | 26917 ft | 394 kts | 307° |
| 2026-04-21 20:24 | 40.67289 | 13.35492 | 27280 ft | 395 kts | 307° |
| 2026-04-21 20:25 | 40.69003 | 13.32654 | 27630 ft | 396 kts | 306° |
| 2026-04-21 20:25 | 40.70721 | 13.29805 | 27970 ft | 398 kts | 306° |
| 2026-04-21 20:25 | 40.72445 | 13.26946 | 28298 ft | 399 kts | 306° |
| 2026-04-21 20:25 | 40.74177 | 13.24069 | 28618 ft | 401 kts | 306° |
| 2026-04-21 20:26 | 40.75913 | 13.21184 | 28923 ft | 402 kts | 306° |
| 2026-04-21 20:26 | 40.77656 | 13.18289 | 29214 ft | 404 kts | 306° |
| 2026-04-21 20:26 | 40.79384 | 13.15418 | 29508 ft | 405 kts | 306° |
| 2026-04-21 20:26 | 40.81137 | 13.12499 | 29762 ft | 406 kts | 306° |
| 2026-04-21 20:27 | 40.82892 | 13.09575 | 29942 ft | 405 kts | 306° |
| 2026-04-21 20:27 | 40.84622 | 13.06697 | 29966 ft | 396 kts | 306° |
| 2026-04-21 20:27 | 40.88020 | 13.01030 | 29965 ft | 392 kts | 306° |
| 2026-04-21 20:28 | 40.91429 | 12.95416 | 29961 ft | 392 kts | 310° |
| 2026-04-21 20:28 | 40.95250 | 12.90245 | 29963 ft | 393 kts | 311° |
| 2026-04-21 20:29 | 40.99071 | 12.85091 | 29960 ft | 387 kts | 311° |
| 2026-04-21 20:29 | 41.00914 | 12.82608 | 29957 ft | 369 kts | 311° |
| 2026-04-21 20:29 | 41.02672 | 12.80236 | 29959 ft | 353 kts | 311° |
| 2026-04-21 20:30 | 41.04353 | 12.77956 | 29959 ft | 337 kts | 311° |
| 2026-04-21 20:30 | 41.05935 | 12.75808 | 29960 ft | 322 kts | 311° |
| 2026-04-21 20:30 | 41.07469 | 12.73728 | 29962 ft | 310 kts | 311° |
| 2026-04-21 20:30 | 41.08967 | 12.71690 | 29963 ft | 307 kts | 310° |
| 2026-04-21 20:31 | 41.11936 | 12.67639 | 29961 ft | 306 kts | 310° |
| 2026-04-21 20:31 | 41.14901 | 12.63595 | 29962 ft | 305 kts | 310° |
| 2026-04-21 20:32 | 41.17862 | 12.59551 | 29956 ft | 305 kts | 310° |
| 2026-04-21 20:32 | 41.20820 | 12.55509 | 29961 ft | 305 kts | 311° |
| 2026-04-21 20:33 | 41.23777 | 12.51472 | 29963 ft | 305 kts | 311° |
| 2026-04-21 20:33 | 41.26732 | 12.47427 | 29961 ft | 305 kts | 310° |
| 2026-04-21 20:34 | 41.29679 | 12.43378 | 29960 ft | 305 kts | 310° |
| 2026-04-21 20:34 | 41.32624 | 12.39327 | 29956 ft | 305 kts | 310° |
| 2026-04-21 20:35 | 41.35564 | 12.35271 | 29955 ft | 304 kts | 310° |
| 2026-04-21 20:35 | 41.38491 | 12.31243 | 29957 ft | 304 kts | 311° |
| 2026-04-21 20:36 | 41.41442 | 12.27191 | 29958 ft | 304 kts | 311° |
| 2026-04-21 20:36 | 41.44384 | 12.23131 | 29953 ft | 304 kts | 310° |
| 2026-04-21 20:37 | 41.47316 | 12.19067 | 29958 ft | 304 kts | 311° |
| 2026-04-21 20:37 | 41.50250 | 12.14998 | 29958 ft | 304 kts | 311° |
| 2026-04-21 20:38 | 41.53183 | 12.10930 | 29959 ft | 304 kts | 311° |
| 2026-04-21 20:38 | 41.56113 | 12.06862 | 29963 ft | 304 kts | 311° |
| 2026-04-21 20:39 | 41.59046 | 12.02791 | 29957 ft | 304 kts | 311° |
| 2026-04-21 20:39 | 41.61973 | 11.98717 | 29955 ft | 304 kts | 311° |
| 2026-04-21 20:40 | 41.64875 | 11.94666 | 29960 ft | 304 kts | 311° |
| 2026-04-21 20:40 | 41.67798 | 11.90582 | 29960 ft | 304 kts | 311° |
| 2026-04-21 20:41 | 41.70717 | 11.86499 | 29956 ft | 304 kts | 311° |
| 2026-04-21 20:41 | 41.73633 | 11.82401 | 29970 ft | 303 kts | 311° |
| 2026-04-21 20:42 | 41.76535 | 11.78296 | 29975 ft | 303 kts | 311° |
| 2026-04-21 20:42 | 41.79435 | 11.74189 | 29970 ft | 303 kts | 311° |
| 2026-04-21 20:43 | 41.82341 | 11.70091 | 29966 ft | 303 kts | 311° |
| 2026-04-21 20:43 | 41.85254 | 11.65999 | 29957 ft | 303 kts | 311° |
| 2026-04-21 20:44 | 41.88164 | 11.61902 | 29954 ft | 303 kts | 311° |
| 2026-04-21 20:44 | 41.91067 | 11.57803 | 29958 ft | 303 kts | 311° |
| 2026-04-21 20:45 | 41.93968 | 11.53700 | 29959 ft | 303 kts | 311° |
| 2026-04-21 20:45 | 41.96865 | 11.49592 | 29958 ft | 303 kts | 311° |
| 2026-04-21 20:46 | 41.99759 | 11.45484 | 29961 ft | 302 kts | 311° |
| 2026-04-21 20:46 | 42.02652 | 11.41380 | 29960 ft | 302 kts | 311° |
| 2026-04-21 20:47 | 42.05523 | 11.37298 | 29962 ft | 302 kts | 311° |
| 2026-04-21 20:47 | 42.08410 | 11.33191 | 29959 ft | 302 kts | 311° |
| 2026-04-21 20:48 | 42.11295 | 11.29084 | 29961 ft | 302 kts | 311° |
| 2026-04-21 20:48 | 42.14177 | 11.24973 | 29961 ft | 302 kts | 311° |
| 2026-04-21 20:49 | 42.17058 | 11.20860 | 29960 ft | 301 kts | 311° |
| 2026-04-21 20:49 | 42.19932 | 11.16748 | 29960 ft | 301 kts | 311° |
| 2026-04-21 20:50 | 42.22317 | 11.13324 | 29961 ft | 301 kts | 311° |
| 2026-04-21 20:50 | 42.25184 | 11.09206 | 29959 ft | 301 kts | 311° |
| 2026-04-21 20:51 | 42.28051 | 11.05084 | 29964 ft | 301 kts | 311° |
| 2026-04-21 20:51 | 42.30911 | 11.00959 | 29964 ft | 301 kts | 311° |
| 2026-04-21 20:52 | 42.33773 | 10.96838 | 29961 ft | 301 kts | 311° |
| 2026-04-21 20:52 | 42.35203 | 10.94776 | 29961 ft | 300 kts | 311° |
| 2026-04-21 20:52 | 42.36633 | 10.92709 | 29958 ft | 300 kts | 311° |
| 2026-04-21 20:53 | 42.38058 | 10.90646 | 29957 ft | 300 kts | 311° |
| 2026-04-21 20:53 | 42.39484 | 10.88584 | 29957 ft | 300 kts | 311° |
| 2026-04-21 20:53 | 42.40911 | 10.86520 | 29958 ft | 300 kts | 311° |
| 2026-04-21 20:53 | 42.42337 | 10.84456 | 29958 ft | 300 kts | 311° |
| 2026-04-21 20:54 | 42.43760 | 10.82390 | 29961 ft | 300 kts | 311° |
| 2026-04-21 20:54 | 42.45165 | 10.80353 | 29961 ft | 300 kts | 311° |
| 2026-04-21 20:54 | 42.46587 | 10.78290 | 29960 ft | 300 kts | 311° |
| 2026-04-21 20:54 | 42.48009 | 10.76224 | 29962 ft | 300 kts | 311° |
| 2026-04-21 20:55 | 42.49430 | 10.74157 | 29958 ft | 300 kts | 311° |
| 2026-04-21 20:55 | 42.50851 | 10.72092 | 29957 ft | 299 kts | 311° |
| 2026-04-21 20:55 | 42.52271 | 10.70027 | 29960 ft | 299 kts | 311° |
| 2026-04-21 20:55 | 42.53692 | 10.67959 | 29961 ft | 299 kts | 311° |
| 2026-04-21 20:56 | 42.55109 | 10.65891 | 29960 ft | 299 kts | 311° |
| 2026-04-21 20:56 | 42.56522 | 10.63829 | 29963 ft | 299 kts | 311° |
| 2026-04-21 20:56 | 42.57936 | 10.61760 | 29965 ft | 299 kts | 311° |
| 2026-04-21 20:56 | 42.59350 | 10.59689 | 29967 ft | 299 kts | 311° |
| 2026-04-21 20:57 | 42.60760 | 10.57624 | 29963 ft | 298 kts | 311° |
| 2026-04-21 20:57 | 42.62175 | 10.55560 | 29966 ft | 298 kts | 311° |
| 2026-04-21 20:57 | 42.63586 | 10.53499 | 29964 ft | 298 kts | 311° |
| 2026-04-21 20:57 | 42.64998 | 10.51437 | 29967 ft | 298 kts | 311° |
| 2026-04-21 20:58 | 42.66407 | 10.49374 | 29971 ft | 298 kts | 311° |
| 2026-04-21 20:58 | 42.67812 | 10.47309 | 29971 ft | 297 kts | 311° |
| 2026-04-21 20:58 | 42.69213 | 10.45245 | 29974 ft | 297 kts | 311° |
| 2026-04-21 20:58 | 42.70615 | 10.43180 | 29972 ft | 297 kts | 311° |
| 2026-04-21 20:59 | 42.72033 | 10.41137 | 29971 ft | 297 kts | 315° |
| 2026-04-21 20:59 | 42.73617 | 10.39324 | 29969 ft | 298 kts | 321° |
| 2026-04-21 20:59 | 42.77216 | 10.36455 | 29971 ft | 300 kts | 327° |
| 2026-04-21 21:00 | 42.79052 | 10.35080 | 29977 ft | 300 kts | 327° |
| 2026-04-21 21:00 | 42.80855 | 10.33724 | 29972 ft | 300 kts | 327° |
| 2026-04-21 21:00 | 42.82681 | 10.32348 | 29973 ft | 300 kts | 327° |
| 2026-04-21 21:00 | 42.84506 | 10.30972 | 29972 ft | 300 kts | 327° |
| 2026-04-21 21:01 | 42.86331 | 10.29593 | 29968 ft | 300 kts | 327° |
| 2026-04-21 21:01 | 42.88152 | 10.28216 | 29969 ft | 299 kts | 327° |
| 2026-04-21 21:01 | 42.89972 | 10.26836 | 29967 ft | 299 kts | 327° |
| 2026-04-21 21:01 | 42.91793 | 10.25456 | 29971 ft | 299 kts | 327° |
| 2026-04-21 21:02 | 42.93612 | 10.24080 | 29973 ft | 299 kts | 327° |
| 2026-04-21 21:02 | 42.95434 | 10.22704 | 29971 ft | 299 kts | 327° |
| 2026-04-21 21:02 | 42.97252 | 10.21331 | 29970 ft | 299 kts | 327° |
| 2026-04-21 21:02 | 42.99068 | 10.19955 | 29976 ft | 298 kts | 327° |
| 2026-04-21 21:03 | 43.00882 | 10.18576 | 29971 ft | 298 kts | 326° |
| 2026-04-21 21:03 | 43.02695 | 10.17196 | 29978 ft | 298 kts | 327° |
| 2026-04-21 21:03 | 43.04505 | 10.15822 | 29980 ft | 298 kts | 327° |
| 2026-04-21 21:03 | 43.06318 | 10.14448 | 29977 ft | 298 kts | 327° |
| 2026-04-21 21:04 | 43.08128 | 10.13076 | 29942 ft | 296 kts | 327° |
| 2026-04-21 21:04 | 43.09927 | 10.11711 | 29447 ft | 296 kts | 326° |
| 2026-04-21 21:04 | 43.11727 | 10.10341 | 28902 ft | 296 kts | 326° |
| 2026-04-21 21:04 | 43.13518 | 10.08974 | 28517 ft | 291 kts | 326° |
| 2026-04-21 21:05 | 43.15272 | 10.07636 | 28118 ft | 286 kts | 326° |
| 2026-04-21 21:05 | 43.16994 | 10.06321 | 27699 ft | 282 kts | 326° |
| 2026-04-21 21:05 | 43.18696 | 10.05018 | 27239 ft | 279 kts | 326° |
| 2026-04-21 21:05 | 43.20388 | 10.03723 | 26768 ft | 278 kts | 326° |
| 2026-04-21 21:06 | 43.22071 | 10.02433 | 26312 ft | 276 kts | 326° |
| 2026-04-21 21:06 | 43.23746 | 10.01150 | 25853 ft | 275 kts | 326° |
| 2026-04-21 21:06 | 43.25415 | 9.99873 | 25415 ft | 274 kts | 326° |
| 2026-04-21 21:06 | 43.27077 | 9.98598 | 25016 ft | 273 kts | 326° |
| 2026-04-21 21:07 | 43.28731 | 9.97330 | 24625 ft | 272 kts | 326° |
| 2026-04-21 21:07 | 43.30384 | 9.96064 | 24235 ft | 271 kts | 326° |
| 2026-04-21 21:07 | 43.32028 | 9.94800 | 23845 ft | 271 kts | 326° |
| 2026-04-21 21:07 | 43.33670 | 9.93536 | 23446 ft | 270 kts | 326° |
| 2026-04-21 21:08 | 43.35306 | 9.92277 | 23019 ft | 269 kts | 326° |
| 2026-04-21 21:08 | 43.36933 | 9.91024 | 22604 ft | 267 kts | 326° |
| 2026-04-21 21:08 | 43.38514 | 9.89809 | 22285 ft | 261 kts | 326° |
| 2026-04-21 21:08 | 43.40089 | 9.88599 | 21826 ft | 258 kts | 325° |
| 2026-04-21 21:09 | 43.41654 | 9.87393 | 21460 ft | 257 kts | 325° |
| 2026-04-21 21:09 | 43.43206 | 9.86193 | 21110 ft | 255 kts | 325° |
| 2026-04-21 21:09 | 43.44750 | 9.85000 | 20757 ft | 254 kts | 325° |
| 2026-04-21 21:09 | 43.46284 | 9.83814 | 20413 ft | 253 kts | 325° |
| 2026-04-21 21:10 | 43.47814 | 9.82630 | 20076 ft | 251 kts | 325° |
| 2026-04-21 21:10 | 43.49334 | 9.81456 | 19746 ft | 250 kts | 325° |
| 2026-04-21 21:10 | 43.50849 | 9.80287 | 19423 ft | 249 kts | 325° |
| 2026-04-21 21:10 | 43.52354 | 9.79123 | 19104 ft | 248 kts | 325° |
| 2026-04-21 21:11 | 43.53855 | 9.77960 | 18789 ft | 247 kts | 325° |
| 2026-04-21 21:11 | 43.55351 | 9.76804 | 18478 ft | 246 kts | 325° |
| 2026-04-21 21:11 | 43.56843 | 9.75652 | 18157 ft | 245 kts | 325° |
| 2026-04-21 21:11 | 43.58328 | 9.74504 | 17812 ft | 245 kts | 325° |
| 2026-04-21 21:12 | 43.59807 | 9.73355 | 17464 ft | 244 kts | 325° |
| 2026-04-21 21:12 | 43.61284 | 9.72206 | 17127 ft | 243 kts | 325° |
| 2026-04-21 21:12 | 43.62758 | 9.71060 | 16789 ft | 243 kts | 325° |
| 2026-04-21 21:12 | 43.64231 | 9.69915 | 16470 ft | 242 kts | 326° |
| 2026-04-21 21:13 | 43.65697 | 9.68773 | 16146 ft | 242 kts | 326° |
| 2026-04-21 21:13 | 43.67161 | 9.67630 | 15844 ft | 242 kts | 326° |
| 2026-04-21 21:13 | 43.68624 | 9.66488 | 15543 ft | 241 kts | 326° |
| 2026-04-21 21:13 | 43.70085 | 9.65348 | 15235 ft | 241 kts | 326° |
| 2026-04-21 21:14 | 43.71544 | 9.64209 | 14933 ft | 241 kts | 326° |
| 2026-04-21 21:14 | 43.73001 | 9.63070 | 14644 ft | 241 kts | 326° |
| 2026-04-21 21:14 | 43.74458 | 9.61928 | 14358 ft | 240 kts | 327° |
| 2026-04-21 21:14 | 43.75915 | 9.60789 | 14065 ft | 240 kts | 327° |
| 2026-04-21 21:15 | 43.77372 | 9.59651 | 13782 ft | 240 kts | 327° |
| 2026-04-21 21:15 | 43.78831 | 9.58515 | 13459 ft | 240 kts | 327° |
| 2026-04-21 21:15 | 43.80285 | 9.57380 | 13148 ft | 240 kts | 327° |
| 2026-04-21 21:15 | 43.81715 | 9.56261 | 12836 ft | 239 kts | 327° |
| 2026-04-21 21:16 | 43.83162 | 9.55129 | 12529 ft | 239 kts | 327° |
| 2026-04-21 21:16 | 43.84607 | 9.54001 | 12223 ft | 238 kts | 327° |
| 2026-04-21 21:16 | 43.86047 | 9.52874 | 11905 ft | 238 kts | 327° |
| 2026-04-21 21:16 | 43.87484 | 9.51744 | 11592 ft | 237 kts | 327° |
| 2026-04-21 21:17 | 43.88918 | 9.50616 | 11278 ft | 237 kts | 328° |
| 2026-04-21 21:17 | 43.90348 | 9.49494 | 10991 ft | 236 kts | 328° |
| 2026-04-21 21:17 | 43.91785 | 9.48365 | 10694 ft | 237 kts | 328° |
| 2026-04-21 21:17 | 43.93216 | 9.47239 | 10406 ft | 236 kts | 328° |
| 2026-04-21 21:18 | 43.94643 | 9.46116 | 10137 ft | 236 kts | 328° |
| 2026-04-21 21:18 | 43.96068 | 9.44996 | 9911 ft | 235 kts | 328° |
| 2026-04-21 21:18 | 43.97474 | 9.43842 | 9790 ft | 235 kts | 323° |
| 2026-04-21 21:18 | 43.98716 | 9.42388 | 9654 ft | 233 kts | 312° |
| 2026-04-21 21:19 | 43.99732 | 9.40635 | 9522 ft | 233 kts | 303° |
| 2026-04-21 21:19 | 44.00643 | 9.38781 | 9394 ft | 233 kts | 304° |
| 2026-04-21 21:19 | 44.01562 | 9.36924 | 9259 ft | 233 kts | 304° |
| 2026-04-21 21:19 | 44.02474 | 9.35083 | 9128 ft | 228 kts | 304° |
| 2026-04-21 21:20 | 44.03450 | 9.33414 | 8993 ft | 219 kts | 315° |
| 2026-04-21 21:20 | 44.04631 | 9.32091 | 8865 ft | 218 kts | 321° |
| 2026-04-21 21:20 | 44.05837 | 9.30828 | 8734 ft | 217 kts | 321° |
| 2026-04-21 21:20 | 44.07076 | 9.29631 | 8599 ft | 218 kts | 334° |
| 2026-04-21 21:21 | 44.08558 | 9.29225 | 8472 ft | 222 kts | 2° |
| 2026-04-21 21:21 | 44.10023 | 9.29914 | 8343 ft | 228 kts | 33° |
| 2026-04-21 21:21 | 44.11096 | 9.31505 | 8225 ft | 223 kts | 50° |
| 2026-04-21 21:21 | 44.12000 | 9.33179 | 8134 ft | 209 kts | 50° |
| 2026-04-21 21:22 | 44.12852 | 9.34749 | 7999 ft | 199 kts | 50° |
| 2026-04-21 21:22 | 44.13741 | 9.36209 | 7865 ft | 199 kts | 36° |
| 2026-04-21 21:22 | 44.14979 | 9.37026 | 7747 ft | 198 kts | 7° |
| 2026-04-21 21:22 | 44.16328 | 9.36923 | 7624 ft | 195 kts | 340° |
| 2026-04-21 21:23 | 44.17488 | 9.35992 | 7497 ft | 193 kts | 322° |
| 2026-04-21 21:23 | 44.18559 | 9.34855 | 7374 ft | 193 kts | 322° |
| 2026-04-21 21:23 | 44.19588 | 9.33768 | 7245 ft | 185 kts | 322° |
| 2026-04-21 21:23 | 44.20605 | 9.32695 | 7124 ft | 183 kts | 322° |
| 2026-04-21 21:24 | 44.21617 | 9.31626 | 7019 ft | 182 kts | 322° |
| 2026-04-21 21:24 | 44.22630 | 9.30557 | 6922 ft | 183 kts | 322° |
| 2026-04-21 21:24 | 44.23644 | 9.29487 | 6780 ft | 183 kts | 322° |
| 2026-04-21 21:24 | 44.24659 | 9.28415 | 6627 ft | 183 kts | 322° |
| 2026-04-21 21:25 | 44.25671 | 9.27345 | 6467 ft | 183 kts | 322° |
| 2026-04-21 21:25 | 44.26678 | 9.26279 | 6301 ft | 182 kts | 322° |
| 2026-04-21 21:25 | 44.27688 | 9.25208 | 6125 ft | 182 kts | 322° |
| 2026-04-21 21:25 | 44.28699 | 9.24135 | 5950 ft | 183 kts | 322° |
| 2026-04-21 21:26 | 44.29712 | 9.23064 | 5714 ft | 182 kts | 323° |
| 2026-04-21 21:26 | 44.30724 | 9.21995 | 5494 ft | 182 kts | 323° |
| 2026-04-21 21:26 | 44.31732 | 9.20929 | 5271 ft | 180 kts | 323° |
| 2026-04-21 21:26 | 44.32717 | 9.19885 | 5053 ft | 175 kts | 321° |
| 2026-04-21 21:27 | 44.33526 | 9.18650 | 4869 ft | 172 kts | 300° |
| 2026-04-21 21:27 | 44.34016 | 9.17195 | 4773 ft | 161 kts | 291° |
| 2026-04-21 21:27 | 44.34393 | 9.15735 | 4605 ft | 159 kts | 289° |
| 2026-04-21 21:27 | 44.34734 | 9.14274 | 4382 ft | 158 kts | 288° |
| 2026-04-21 21:28 | 44.35058 | 9.12823 | 4174 ft | 155 kts | 287° |
| 2026-04-21 21:28 | 44.35370 | 9.11408 | 3968 ft | 150 kts | 287° |
| 2026-04-21 21:28 | 44.35970 | 9.08655 | 3555 ft | 147 kts | 287° |
| 2026-04-21 21:29 | 44.36267 | 9.07289 | 3346 ft | 147 kts | 287° |
| 2026-04-21 21:29 | 44.36563 | 9.05925 | 3141 ft | 146 kts | 287° |
| 2026-04-21 21:29 | 44.36858 | 9.04565 | 2930 ft | 146 kts | 287° |
| 2026-04-21 21:29 | 44.37151 | 9.03211 | 2723 ft | 145 kts | 287° |
| 2026-04-21 21:30 | 44.37443 | 9.01865 | 2518 ft | 145 kts | 287° |
| 2026-04-21 21:30 | 44.37729 | 9.00540 | 2327 ft | 144 kts | 287° |
| 2026-04-21 21:30 | 44.38018 | 8.99204 | 2115 ft | 143 kts | 287° |
| 2026-04-21 21:30 | 44.38306 | 8.97872 | 1905 ft | 143 kts | 287° |
| 2026-04-21 21:31 | 44.38593 | 8.96543 | 1708 ft | 142 kts | 287° |
| 2026-04-21 21:31 | 44.38879 | 8.95215 | 1496 ft | 142 kts | 287° |
| 2026-04-21 21:31 | 44.39163 | 8.93896 | 1267 ft | 141 kts | 288° |
| 2026-04-21 21:31 | 44.39475 | 8.92596 | 1055 ft | 141 kts | 290° |
| 2026-04-21 21:32 | 44.39774 | 8.91297 | 887 ft | 141 kts | 285° |
| 2026-04-21 21:32 | 44.40051 | 8.89974 | 690 ft | 142 kts | 287° |
| 2026-04-21 21:32 | 44.40319 | 8.88635 | 485 ft | 144 kts | 284° |
| 2026-04-21 21:32 | 44.40588 | 8.87279 | 303 ft | 146 kts | 284° |
| 2026-04-21 21:33 | 44.40853 | 8.85903 | 69 ft | 147 kts | 284° |
| 2026-04-21 21:33 | 44.41109 | 8.84600 | 20 ft | 116 kts | 285° |
| 2026-04-21 21:33 | 44.41252 | 8.83881 | 20 ft | 55 kts | 285° |
| 2026-04-21 21:33 | 44.41349 | 8.83397 | 23 ft | 50 kts | 286° |
| 2026-04-21 21:34 | 44.41439 | 8.82942 | 23 ft | 47 kts | 285° |
| 2026-04-21 21:34 | 44.41513 | 8.82573 | 18 ft | 29 kts | 287° |
| 2026-04-21 21:34 | 44.41580 | 8.82484 | 15 ft | 11 kts | 4° |
| 2026-04-21 21:34 | 44.41650 | 8.82524 | 17 ft | 14 kts | 44° |
| 2026-04-21 21:35 | 44.41647 | 8.82684 | 17 ft | 18 kts | 110° |
| 2026-04-21 21:35 | 44.41618 | 8.82841 | 20 ft | 15 kts | 109° |
| 2026-04-21 21:35 | 44.41587 | 8.82984 | 24 ft | 15 kts | 102° |
| 2026-04-21 21:35 | 44.41561 | 8.83125 | 24 ft | 14 kts | 109° |
| 2026-04-21 21:36 | 44.41528 | 8.83269 | 26 ft | 17 kts | 105° |
| 2026-04-21 21:36 | 44.41492 | 8.83444 | 22 ft | 20 kts | 107° |
| 2026-04-21 21:36 | 44.41457 | 8.83642 | 22 ft | 22 kts | 103° |
| 2026-04-21 21:36 | 44.41412 | 8.83860 | 20 ft | 24 kts | 106° |
| 2026-04-21 21:37 | 44.41365 | 8.84088 | 18 ft | 25 kts | 105° |
| 2026-04-21 21:37 | 44.41325 | 8.84300 | 20 ft | 19 kts | 105° |
| 2026-04-21 21:37 | 44.41323 | 8.84422 | 19 ft | 13 kts | 63° |
| 2026-04-21 21:37 | 44.41384 | 8.84537 | 18 ft | 16 kts | 52° |
| 2026-04-21 21:38 | 44.41454 | 8.84664 | 18 ft | 15 kts | 52° |
| 2026-04-21 21:38 | 44.41495 | 8.84740 | 18 ft | 12 kts | 52° |
| 2026-04-21 21:38 | 44.41540 | 8.84821 | 18 ft | 7 kts | 52° |
| 2026-04-21 21:38 | 44.41553 | 8.84870 | 18 ft | 5 kts | 98° |
| 2026-04-21 21:39 | 44.41547 | 8.84909 | 18 ft | 3 kts | 106° |
| 2026-04-21 21:39 | 44.41541 | 8.84940 | 19 ft | 2 kts | 104° |
| 2026-04-21 21:39 | 44.41539 | 8.84948 | 19 ft | 1 kts | 104° |
| 2026-04-21 21:39 | 44.41539 | 8.84953 | 18 ft | 0 kts | 104° |